createdAt,value
2018-12-29T00:00:45.306Z,4.10
2018-12-29T00:01:21.096Z,4.10
2018-12-29T00:01:56.367Z,4.10
2018-12-29T00:02:31.686Z,4.10
2018-12-29T00:03:07.209Z,4.10
2018-12-29T00:03:42.592Z,4.10
2018-12-29T00:04:17.790Z,4.10
2018-12-29T00:04:53.231Z,4.10
2018-12-29T00:05:28.564Z,4.10
2018-12-29T00:06:04.027Z,4.00
2018-12-29T00:06:39.327Z,4.10
2018-12-29T00:07:14.563Z,4.10
2018-12-29T00:07:50.346Z,4.00
2018-12-29T00:08:25.766Z,4.10
2018-12-29T00:09:00.951Z,4.10
2018-12-29T00:09:36.327Z,4.10
2018-12-29T00:10:11.864Z,4.10
2018-12-29T00:10:47.504Z,4.10
2018-12-29T00:11:22.984Z,4.10
2018-12-29T00:11:58.426Z,4.10
2018-12-29T00:12:33.704Z,4.10
2018-12-29T00:13:09.507Z,4.10
2018-12-29T00:13:44.946Z,4.10
2018-12-29T00:14:20.310Z,4.10
2018-12-29T00:14:55.706Z,4.10
2018-12-29T00:15:31.172Z,4.10
2018-12-29T00:16:06.728Z,4.00
2018-12-29T00:16:42.124Z,4.10
2018-12-29T00:17:17.547Z,4.10
2018-12-29T00:17:53.145Z,4.10
2018-12-29T00:18:28.526Z,4.10
2018-12-29T00:19:03.924Z,4.10
2018-12-29T00:19:39.492Z,4.10
2018-12-29T00:20:15.033Z,4.10
2018-12-29T00:20:50.488Z,4.10
2018-12-29T00:21:25.889Z,4.00
2018-12-29T00:22:01.709Z,4.10
2018-12-29T00:22:37.287Z,4.10
2018-12-29T00:23:12.588Z,4.10
2018-12-29T00:23:47.888Z,4.10
2018-12-29T00:24:24.227Z,4.10
2018-12-29T00:24:59.711Z,4.10
2018-12-29T00:25:35.069Z,4.10
2018-12-29T00:26:10.549Z,4.10
2018-12-29T00:26:45.928Z,4.10
2018-12-29T00:27:21.189Z,4.10
2018-12-29T00:27:56.728Z,4.10
2018-12-29T00:28:32.406Z,4.10
2018-12-29T00:29:07.790Z,4.10
2018-12-29T00:29:43.207Z,4.10
2018-12-29T00:30:18.591Z,4.10
2018-12-29T00:30:53.935Z,4.10
2018-12-29T00:31:29.266Z,4.10
2018-12-29T00:32:04.829Z,4.10
2018-12-29T00:32:40.270Z,4.10
2018-12-29T00:33:15.695Z,4.10
2018-12-29T00:33:51.049Z,4.10
2018-12-29T00:34:26.312Z,4.10
2018-12-29T00:35:01.583Z,4.10
2018-12-29T00:35:37.028Z,4.10
2018-12-29T00:36:12.535Z,4.10
2018-12-29T00:36:47.769Z,4.10
2018-12-29T00:37:23.092Z,4.10
2018-12-29T00:37:58.494Z,4.10
2018-12-29T00:38:33.928Z,4.10
2018-12-29T00:39:09.335Z,4.10
2018-12-29T00:39:44.789Z,4.10
2018-12-29T00:40:20.353Z,4.10
2018-12-29T00:40:55.668Z,4.10
2018-12-29T00:41:31.086Z,4.10
2018-12-29T00:42:06.449Z,4.10
2018-12-29T00:42:41.973Z,4.10
2018-12-29T00:43:17.449Z,4.10
2018-12-29T00:43:52.949Z,4.10
2018-12-29T00:44:28.693Z,4.10
2018-12-29T00:45:04.116Z,4.10
2018-12-29T00:45:39.436Z,4.10
2018-12-29T00:46:14.873Z,4.10
2018-12-29T00:46:50.471Z,4.10
2018-12-29T00:47:26.009Z,4.10
2018-12-29T00:48:01.432Z,4.10
2018-12-29T00:48:36.849Z,4.10
2018-12-29T00:49:12.129Z,4.10
2018-12-29T00:49:47.568Z,4.10
2018-12-29T00:50:22.947Z,4.10
2018-12-29T00:50:58.289Z,4.10
2018-12-29T00:51:33.830Z,4.10
2018-12-29T00:52:09.791Z,4.10
2018-12-29T00:52:45.192Z,4.10
2018-12-29T00:53:20.847Z,4.10
2018-12-29T00:53:56.171Z,4.10
2018-12-29T00:54:31.511Z,4.10
2018-12-29T00:55:06.950Z,4.10
2018-12-29T00:55:42.270Z,4.10
2018-12-29T00:56:17.608Z,4.10
2018-12-29T00:56:52.969Z,4.10
2018-12-29T00:57:28.310Z,4.10
2018-12-29T00:58:03.709Z,4.10
2018-12-29T00:58:39.087Z,4.10
2018-12-29T00:59:14.556Z,4.10
2018-12-29T00:59:49.748Z,4.10
2018-12-29T01:00:25.068Z,4.10
2018-12-29T01:01:00.387Z,4.10
2018-12-29T01:01:35.746Z,4.10
2018-12-29T01:02:11.347Z,4.10
2018-12-29T01:02:46.869Z,4.10
2018-12-29T01:03:22.148Z,4.10
2018-12-29T01:03:57.589Z,4.10
2018-12-29T01:04:32.990Z,4.10
2018-12-29T01:05:08.407Z,4.10
2018-12-29T01:05:43.784Z,4.10
2018-12-29T01:06:19.238Z,4.10
2018-12-29T01:06:54.528Z,4.10
2018-12-29T01:07:29.908Z,4.10
2018-12-29T01:08:05.366Z,4.10
2018-12-29T01:08:40.693Z,4.10
2018-12-29T01:09:16.050Z,4.10
2018-12-29T01:09:51.405Z,4.10
2018-12-29T01:10:27.205Z,4.10
2018-12-29T01:11:02.746Z,4.10
2018-12-29T01:11:38.166Z,4.10
2018-12-29T01:12:13.766Z,4.10
2018-12-29T01:12:49.050Z,4.10
2018-12-29T01:13:24.507Z,4.10
2018-12-29T01:14:00.092Z,4.10
2018-12-29T01:14:35.529Z,4.10
2018-12-29T01:15:11.287Z,4.10
2018-12-29T01:15:46.829Z,4.10
2018-12-29T01:16:22.231Z,4.10
2018-12-29T01:16:57.791Z,4.10
2018-12-29T01:17:33.254Z,4.10
2018-12-29T01:18:09.047Z,4.10
2018-12-29T01:18:44.425Z,4.10
2018-12-29T01:19:19.816Z,4.10
2018-12-29T01:19:55.166Z,4.10
2018-12-29T01:20:30.428Z,4.10
2018-12-29T01:21:05.867Z,4.10
2018-12-29T01:21:41.288Z,4.10
2018-12-29T01:22:16.807Z,4.10
2018-12-29T01:22:52.070Z,4.10
2018-12-29T01:23:27.485Z,4.10
2018-12-29T01:24:03.028Z,4.10
2018-12-29T01:24:38.567Z,4.10
2018-12-29T01:25:13.884Z,4.10
2018-12-29T01:25:49.367Z,4.10
2018-12-29T01:26:24.770Z,4.10
2018-12-29T01:27:00.067Z,4.00
2018-12-29T01:27:35.508Z,4.10
2018-12-29T01:28:10.907Z,4.10
2018-12-29T01:28:46.141Z,4.10
2018-12-29T01:29:21.796Z,4.10
2018-12-29T01:29:57.225Z,4.10
2018-12-29T01:30:32.687Z,4.10
2018-12-29T01:31:08.415Z,4.10
2018-12-29T01:31:44.107Z,4.00
2018-12-29T01:32:19.571Z,4.10
2018-12-29T01:32:55.148Z,4.10
2018-12-29T01:33:30.526Z,4.10
2018-12-29T01:34:06.226Z,4.00
2018-12-29T01:34:41.632Z,4.10
2018-12-29T01:35:16.973Z,4.10
2018-12-29T01:35:52.209Z,4.10
2018-12-29T01:36:27.669Z,4.10
2018-12-29T01:37:03.287Z,4.00
2018-12-29T01:37:38.807Z,4.00
2018-12-29T01:38:14.487Z,4.10
2018-12-29T01:38:49.847Z,4.00
2018-12-29T01:39:25.245Z,4.00
2018-12-29T01:40:01.026Z,4.00
2018-12-29T01:40:36.609Z,4.10
2018-12-29T01:41:12.086Z,4.00
2018-12-29T01:41:47.530Z,4.10
2018-12-29T01:42:22.869Z,4.10
2018-12-29T01:42:58.188Z,4.10
2018-12-29T01:43:33.552Z,4.10
2018-12-29T01:44:09.006Z,4.10
2018-12-29T01:44:44.390Z,4.10
2018-12-29T01:45:19.791Z,4.10
2018-12-29T01:45:55.067Z,4.10
2018-12-29T01:46:30.645Z,4.10
2018-12-29T01:47:06.384Z,4.10
2018-12-29T01:47:41.893Z,4.10
2018-12-29T01:48:17.268Z,4.10
2018-12-29T01:48:52.728Z,4.10
2018-12-29T01:49:28.305Z,4.10
2018-12-29T01:50:03.885Z,4.10
2018-12-29T01:50:39.305Z,4.10
2018-12-29T01:51:14.848Z,4.10
2018-12-29T01:51:50.452Z,4.10
2018-12-29T01:52:25.747Z,4.10
2018-12-29T01:53:01.168Z,4.10
2018-12-29T01:53:36.906Z,4.10
2018-12-29T01:54:12.511Z,4.00
2018-12-29T01:54:47.864Z,4.00
2018-12-29T01:55:23.253Z,4.00
2018-12-29T01:55:58.515Z,4.00
2018-12-29T01:56:33.855Z,4.00
2018-12-29T01:57:09.294Z,4.00
2018-12-29T01:57:44.829Z,4.00
2018-12-29T01:58:20.328Z,4.00
2018-12-29T01:58:55.808Z,4.00
2018-12-29T01:59:31.207Z,4.00
2018-12-29T02:00:07.007Z,4.00
2018-12-29T02:00:42.387Z,4.00
2018-12-29T02:01:18.134Z,4.00
2018-12-29T02:01:53.654Z,4.00
2018-12-29T02:02:29.067Z,4.00
2018-12-29T02:03:04.587Z,4.00
2018-12-29T02:03:40.134Z,4.00
2018-12-29T02:04:15.515Z,4.00
2018-12-29T02:04:51.008Z,4.00
2018-12-29T02:05:26.629Z,4.00
2018-12-29T02:06:02.308Z,4.00
2018-12-29T02:06:37.707Z,4.00
2018-12-29T02:07:13.284Z,4.00
2018-12-29T02:07:49.112Z,4.00
2018-12-29T02:08:24.627Z,4.00
2018-12-29T02:09:00.255Z,4.00
2018-12-29T02:09:35.708Z,4.00
2018-12-29T02:10:11.305Z,4.00
2018-12-29T02:10:46.685Z,3.90
2018-12-29T02:11:23.047Z,3.90
2018-12-29T02:11:58.345Z,3.90
2018-12-29T02:12:33.746Z,3.90
2018-12-29T02:13:09.187Z,3.90
2018-12-29T02:13:44.705Z,3.90
2018-12-29T02:14:20.309Z,3.90
2018-12-29T02:14:55.893Z,4.00
2018-12-29T02:15:31.266Z,4.00
2018-12-29T02:16:06.647Z,3.90
2018-12-29T02:16:42.386Z,3.90
2018-12-29T02:17:17.971Z,4.00
2018-12-29T02:17:53.228Z,4.00
2018-12-29T02:18:28.555Z,3.90
2018-12-29T02:19:03.954Z,3.90
2018-12-29T02:19:39.628Z,3.90
2018-12-29T02:20:15.088Z,3.90
2018-12-29T02:20:50.429Z,3.90
2018-12-29T02:21:25.931Z,3.90
2018-12-29T02:22:01.211Z,3.90
2018-12-29T02:22:36.526Z,3.90
2018-12-29T02:23:11.889Z,3.90
2018-12-29T02:23:47.648Z,3.90
2018-12-29T02:24:23.009Z,3.90
2018-12-29T02:24:58.628Z,3.90
2018-12-29T02:25:34.128Z,3.90
2018-12-29T02:26:09.584Z,3.90
2018-12-29T02:26:44.893Z,3.90
2018-12-29T02:27:20.231Z,3.80
2018-12-29T02:27:55.749Z,3.90
2018-12-29T02:28:31.088Z,3.90
2018-12-29T02:29:06.632Z,3.90
2018-12-29T02:29:42.045Z,3.80
2018-12-29T02:30:17.471Z,3.90
2018-12-29T02:30:52.774Z,3.90
2018-12-29T02:31:28.472Z,3.90
2018-12-29T02:32:03.985Z,3.80
2018-12-29T02:32:39.474Z,3.80
2018-12-29T02:33:14.989Z,3.80
2018-12-29T02:33:50.350Z,3.80
2018-12-29T02:34:25.672Z,3.80
2018-12-29T02:35:01.048Z,3.80
2018-12-29T02:35:36.512Z,3.80
2018-12-29T02:36:11.791Z,3.80
2018-12-29T02:36:47.289Z,3.80
2018-12-29T02:37:23.025Z,3.80
2018-12-29T02:37:58.345Z,3.80
2018-12-29T02:38:33.765Z,3.80
2018-12-29T02:39:09.707Z,3.80
2018-12-29T02:39:44.986Z,3.80
2018-12-29T02:40:20.389Z,3.80
2018-12-29T02:40:55.750Z,3.80
2018-12-29T02:41:31.226Z,3.80
2018-12-29T02:42:06.567Z,3.80
2018-12-29T02:42:41.929Z,3.80
2018-12-29T02:43:17.352Z,3.80
2018-12-29T02:43:53.246Z,3.80
2018-12-29T02:44:28.747Z,3.80
2018-12-29T02:45:04.269Z,3.80
2018-12-29T02:45:39.687Z,3.80
2018-12-29T02:46:15.087Z,3.80
2018-12-29T02:46:50.646Z,3.80
2018-12-29T02:47:26.292Z,3.80
2018-12-29T02:48:01.725Z,3.80
2018-12-29T02:48:37.345Z,3.80
2018-12-29T02:49:12.944Z,3.80
2018-12-29T02:49:48.589Z,3.80
2018-12-29T02:50:23.866Z,3.80
2018-12-29T02:50:59.268Z,3.80
2018-12-29T02:51:35.185Z,3.80
2018-12-29T02:52:10.493Z,3.80
2018-12-29T02:52:45.948Z,3.80
2018-12-29T02:53:21.352Z,3.80
2018-12-29T02:53:56.908Z,3.80
2018-12-29T02:55:18.613Z,3.80
2018-12-29T02:55:54.155Z,3.70
2018-12-29T02:56:29.533Z,3.70
2018-12-29T02:57:05.094Z,3.70
2018-12-29T02:57:40.809Z,3.80
2018-12-29T02:58:15.993Z,3.70
2018-12-29T02:58:51.272Z,3.70
2018-12-29T02:59:26.816Z,3.70
2018-12-29T03:00:02.028Z,3.70
2018-12-29T03:00:37.509Z,3.70
2018-12-29T03:01:12.852Z,3.70
2018-12-29T03:01:48.128Z,3.70
2018-12-29T03:02:24.857Z,3.70
2018-12-29T03:03:00.194Z,3.70
2018-12-29T03:03:35.850Z,3.70
2018-12-29T03:04:11.448Z,3.70
2018-12-29T03:04:46.787Z,3.60
2018-12-29T03:05:22.430Z,3.70
2018-12-29T03:05:57.857Z,3.60
2018-12-29T03:06:33.381Z,3.60
2018-12-29T03:07:08.808Z,3.60
2018-12-29T03:07:44.081Z,3.60
2018-12-29T03:08:19.636Z,3.60
2018-12-29T03:08:55.220Z,3.60
2018-12-29T03:09:30.431Z,3.60
2018-12-29T03:10:05.973Z,3.60
2018-12-29T03:10:41.411Z,3.60
2018-12-29T03:11:16.852Z,3.50
2018-12-29T03:11:52.700Z,3.50
2018-12-29T03:12:28.052Z,3.50
2018-12-29T03:13:03.530Z,3.50
2018-12-29T03:13:39.072Z,3.50
2018-12-29T03:14:14.473Z,3.50
2018-12-29T03:14:49.931Z,3.50
2018-12-29T03:15:25.331Z,3.50
2018-12-29T03:16:00.594Z,3.50
2018-12-29T03:16:36.172Z,3.50
2018-12-29T03:17:11.473Z,3.50
2018-12-29T03:17:46.892Z,3.50
2018-12-29T03:18:22.633Z,3.50
2018-12-29T03:18:58.032Z,3.40
2018-12-29T03:19:33.534Z,3.50
2018-12-29T03:20:08.976Z,3.50
2018-12-29T03:20:44.431Z,3.40
2018-12-29T03:21:19.668Z,3.40
2018-12-29T03:21:55.204Z,3.50
2018-12-29T03:22:30.674Z,3.40
2018-12-29T03:23:06.035Z,3.40
2018-12-29T03:23:41.590Z,3.40
2018-12-29T03:24:17.038Z,3.50
2018-12-29T03:24:52.472Z,3.40
2018-12-29T03:25:28.270Z,3.40
2018-12-29T03:26:03.589Z,3.40
2018-12-29T03:26:38.912Z,3.40
2018-12-29T03:27:14.375Z,3.40
2018-12-29T03:27:49.712Z,3.40
2018-12-29T03:28:25.156Z,3.40
2018-12-29T03:29:00.434Z,3.40
2018-12-29T03:29:35.853Z,3.40
2018-12-29T03:30:11.273Z,3.40
2018-12-29T03:30:46.660Z,3.40
2018-12-29T03:31:22.008Z,3.40
2018-12-29T03:31:57.634Z,3.40
2018-12-29T03:32:32.915Z,3.40
2018-12-29T03:33:08.237Z,3.40
2018-12-29T03:33:43.610Z,3.40
2018-12-29T03:34:19.011Z,3.40
2018-12-29T03:34:54.298Z,3.40
2018-12-29T03:35:29.711Z,3.40
2018-12-29T03:36:05.089Z,3.40
2018-12-29T03:36:40.493Z,3.40
2018-12-29T03:37:15.949Z,3.40
2018-12-29T03:37:51.290Z,3.40
2018-12-29T03:38:26.535Z,3.40
2018-12-29T03:39:01.714Z,3.40
2018-12-29T03:39:37.100Z,3.40
2018-12-29T03:40:12.536Z,3.40
2018-12-29T03:40:48.013Z,3.40
2018-12-29T03:41:23.250Z,3.40
2018-12-29T03:41:58.591Z,3.40
2018-12-29T03:42:33.831Z,3.40
2018-12-29T03:43:09.539Z,3.40
2018-12-29T03:43:44.915Z,3.40
2018-12-29T03:44:20.450Z,3.40
2018-12-29T03:44:55.850Z,3.40
2018-12-29T03:45:31.397Z,3.40
2018-12-29T03:46:06.941Z,3.40
2018-12-29T03:46:42.335Z,3.40
2018-12-29T03:47:17.550Z,3.40
2018-12-29T03:47:52.894Z,3.40
2018-12-29T03:48:28.413Z,3.40
2018-12-29T03:49:03.869Z,3.40
2018-12-29T03:49:39.231Z,3.50
2018-12-29T03:50:14.652Z,3.40
2018-12-29T03:50:50.030Z,3.40
2018-12-29T03:51:25.395Z,3.40
2018-12-29T03:52:00.854Z,3.40
2018-12-29T03:52:36.111Z,3.50
2018-12-29T03:53:12.091Z,3.50
2018-12-29T03:53:47.613Z,3.50
2018-12-29T03:54:23.019Z,3.50
2018-12-29T03:54:58.391Z,3.50
2018-12-29T03:55:33.833Z,3.50
2018-12-29T03:56:09.031Z,3.50
2018-12-29T03:56:44.331Z,3.50
2018-12-29T03:57:19.694Z,3.50
2018-12-29T03:57:55.321Z,3.50
2018-12-29T03:58:30.716Z,3.50
2018-12-29T03:59:06.153Z,3.50
2018-12-29T03:59:41.472Z,3.50
2018-12-29T04:00:17.101Z,3.50
2018-12-29T04:00:52.334Z,3.50
2018-12-29T04:01:27.715Z,3.50
2018-12-29T04:02:03.155Z,3.50
2018-12-29T04:02:38.892Z,3.50
2018-12-29T04:03:14.276Z,3.50
2018-12-29T04:03:49.852Z,3.50
2018-12-29T04:04:25.313Z,3.50
2018-12-29T04:05:00.693Z,3.50
2018-12-29T04:05:36.011Z,3.50
2018-12-29T04:06:11.474Z,3.50
2018-12-29T04:06:47.316Z,3.60
2018-12-29T04:07:22.780Z,3.50
2018-12-29T04:07:58.372Z,3.50
2018-12-29T04:08:33.772Z,3.60
2018-12-29T04:09:36.474Z,3.50
2018-12-29T04:10:15.889Z,3.60
2018-12-29T04:10:51.311Z,3.60
2018-12-29T04:11:26.639Z,3.60
2018-12-29T04:12:03.640Z,3.60
2018-12-29T04:12:40.602Z,3.60
2018-12-29T04:13:16.111Z,3.60
2018-12-29T04:13:51.851Z,3.60
2018-12-29T04:14:27.511Z,3.60
2018-12-29T04:15:03.089Z,3.60
2018-12-29T04:15:38.595Z,3.60
2018-12-29T04:16:14.027Z,3.60
2018-12-29T04:16:49.388Z,3.60
2018-12-29T04:17:24.817Z,3.60
2018-12-29T04:18:00.224Z,3.60
2018-12-29T04:18:35.635Z,3.60
2018-12-29T04:19:11.080Z,3.60
2018-12-29T04:19:46.490Z,3.60
2018-12-29T04:20:22.465Z,3.60
2018-12-29T04:20:57.767Z,3.60
2018-12-29T04:21:33.080Z,3.60
2018-12-29T04:22:08.471Z,3.60
2018-12-29T04:22:43.925Z,3.60
2018-12-29T04:23:19.487Z,3.60
2018-12-29T04:23:55.216Z,3.60
2018-12-29T04:24:30.689Z,3.60
2018-12-29T04:25:06.117Z,3.60
2018-12-29T04:25:41.483Z,3.60
2018-12-29T04:26:16.812Z,3.60
2018-12-29T04:26:52.576Z,3.60
2018-12-29T04:27:28.158Z,3.60
2018-12-29T04:28:03.603Z,3.60
2018-12-29T04:28:39.052Z,3.60
2018-12-29T04:29:14.610Z,3.60
2018-12-29T04:29:50.262Z,3.60
2018-12-29T04:30:25.688Z,3.60
2018-12-29T04:31:01.096Z,3.60
2018-12-29T04:31:36.501Z,3.60
2018-12-29T04:32:11.946Z,3.60
2018-12-29T04:32:47.355Z,3.60
2018-12-29T04:33:22.863Z,3.60
2018-12-29T04:33:58.554Z,3.60
2018-12-29T04:34:33.932Z,3.60
2018-12-29T04:35:09.407Z,3.60
2018-12-29T04:35:44.855Z,3.60
2018-12-29T04:36:20.298Z,3.60
2018-12-29T04:36:55.691Z,3.60
2018-12-29T04:37:31.093Z,3.60
2018-12-29T04:38:06.425Z,3.60
2018-12-29T04:38:41.744Z,3.50
2018-12-29T04:39:17.114Z,3.50
2018-12-29T04:39:52.513Z,3.50
2018-12-29T04:40:28.295Z,3.50
2018-12-29T04:41:03.586Z,3.50
2018-12-29T04:41:39.012Z,3.50
2018-12-29T04:42:14.303Z,3.50
2018-12-29T04:42:49.751Z,3.50
2018-12-29T04:43:25.048Z,3.50
2018-12-29T04:44:00.485Z,3.50
2018-12-29T04:44:35.843Z,3.50
2018-12-29T04:45:11.390Z,3.50
2018-12-29T04:45:46.862Z,3.50
2018-12-29T04:46:22.426Z,3.50
2018-12-29T04:46:58.292Z,3.50
2018-12-29T04:47:33.568Z,3.50
2018-12-29T04:48:08.940Z,3.50
2018-12-29T04:48:44.432Z,3.50
2018-12-29T04:49:19.769Z,3.50
2018-12-29T04:49:55.521Z,3.50
2018-12-29T04:50:31.119Z,3.50
2018-12-29T04:51:06.502Z,3.50
2018-12-29T04:51:41.906Z,3.50
2018-12-29T04:52:17.201Z,3.50
2018-12-29T04:52:52.606Z,3.50
2018-12-29T04:53:28.130Z,3.50
2018-12-29T04:54:03.926Z,3.50
2018-12-29T04:54:39.278Z,3.50
2018-12-29T04:55:14.541Z,3.50
2018-12-29T04:55:50.081Z,3.50
2018-12-29T04:56:25.476Z,3.50
2018-12-29T04:57:00.853Z,3.50
2018-12-29T04:57:36.386Z,3.50
2018-12-29T04:58:11.910Z,3.50
2018-12-29T04:58:47.519Z,3.50
2018-12-29T04:59:22.967Z,3.50
2018-12-29T04:59:58.504Z,3.50
2018-12-29T05:00:34.242Z,3.50
2018-12-29T05:01:09.682Z,3.50
2018-12-29T05:01:45.077Z,3.50
2018-12-29T05:02:20.468Z,3.40
2018-12-29T05:02:55.943Z,3.40
2018-12-29T05:03:31.214Z,3.40
2018-12-29T05:04:06.650Z,3.40
2018-12-29T05:04:42.052Z,3.40
2018-12-29T05:05:17.481Z,3.40
2018-12-29T05:05:52.945Z,3.40
2018-12-29T05:06:28.343Z,3.40
2018-12-29T05:07:03.777Z,3.40
2018-12-29T05:07:39.767Z,3.40
2018-12-29T05:08:15.282Z,3.40
2018-12-29T05:08:50.710Z,3.30
2018-12-29T05:09:26.104Z,3.30
2018-12-29T05:10:01.361Z,3.30
2018-12-29T05:10:36.821Z,3.40
2018-12-29T05:11:12.303Z,3.30
2018-12-29T05:11:48.413Z,3.30
2018-12-29T05:12:23.863Z,3.30
2018-12-29T05:12:59.367Z,3.30
2018-12-29T05:13:34.822Z,3.30
2018-12-29T05:14:10.200Z,3.30
2018-12-29T05:14:45.504Z,3.30
2018-12-29T05:15:20.904Z,3.30
2018-12-29T05:15:56.222Z,3.30
2018-12-29T05:16:31.575Z,3.30
2018-12-29T05:17:07.133Z,3.30
2018-12-29T05:17:42.545Z,3.30
2018-12-29T05:18:17.994Z,3.30
2018-12-29T05:18:53.390Z,3.40
2018-12-29T05:19:28.815Z,3.30
2018-12-29T05:20:04.374Z,3.30
2018-12-29T05:20:39.818Z,3.40
2018-12-29T05:21:15.575Z,3.30
2018-12-29T05:21:51.103Z,3.30
2018-12-29T05:22:26.442Z,3.30
2018-12-29T05:23:01.963Z,3.40
2018-12-29T05:23:37.485Z,3.30
2018-12-29T05:24:12.866Z,3.30
2018-12-29T05:24:48.180Z,3.30
2018-12-29T05:25:23.580Z,3.30
2018-12-29T05:25:58.992Z,3.30
2018-12-29T05:26:34.476Z,3.30
2018-12-29T05:27:09.967Z,3.30
2018-12-29T05:27:45.480Z,3.30
2018-12-29T05:28:21.263Z,3.30
2018-12-29T05:28:56.575Z,3.30
2018-12-29T05:29:32.012Z,3.30
2018-12-29T05:30:07.480Z,3.30
2018-12-29T05:30:42.875Z,3.30
2018-12-29T05:31:18.337Z,3.30
2018-12-29T05:31:53.736Z,3.30
2018-12-29T05:32:29.088Z,3.30
2018-12-29T05:33:04.673Z,3.30
2018-12-29T05:33:40.105Z,3.30
2018-12-29T05:34:15.494Z,3.30
2018-12-29T05:34:51.322Z,3.30
2018-12-29T05:35:26.845Z,3.30
2018-12-29T05:36:02.252Z,3.30
2018-12-29T05:36:37.599Z,3.30
2018-12-29T05:37:12.997Z,3.30
2018-12-29T05:37:48.526Z,3.30
2018-12-29T05:38:24.150Z,3.30
2018-12-29T05:38:59.636Z,3.30
2018-12-29T05:39:35.026Z,3.30
2018-12-29T05:40:10.448Z,3.30
2018-12-29T05:40:45.969Z,3.30
2018-12-29T05:41:21.197Z,3.30
2018-12-29T05:41:56.943Z,3.30
2018-12-29T05:42:32.536Z,3.30
2018-12-29T05:43:07.904Z,3.30
2018-12-29T05:43:43.411Z,3.30
2018-12-29T05:44:18.877Z,3.30
2018-12-29T05:44:54.306Z,3.30
2018-12-29T05:45:29.734Z,3.30
2018-12-29T05:46:05.173Z,3.30
2018-12-29T05:46:40.596Z,3.30
2018-12-29T05:47:16.004Z,3.30
2018-12-29T05:47:51.417Z,3.30
2018-12-29T05:48:26.753Z,3.30
2018-12-29T05:49:02.603Z,3.30
2018-12-29T05:49:37.919Z,3.30
2018-12-29T05:50:13.302Z,3.30
2018-12-29T05:50:48.602Z,3.30
2018-12-29T05:51:24.053Z,3.30
2018-12-29T05:51:59.457Z,3.30
2018-12-29T05:52:34.799Z,3.30
2018-12-29T05:53:10.434Z,3.30
2018-12-29T05:53:45.869Z,3.30
2018-12-29T05:54:21.166Z,3.30
2018-12-29T05:54:56.734Z,3.30
2018-12-29T05:55:32.155Z,3.30
2018-12-29T05:56:07.512Z,3.30
2018-12-29T05:56:42.991Z,3.30
2018-12-29T05:57:18.431Z,3.30
2018-12-29T05:57:53.624Z,3.30
2018-12-29T05:58:28.975Z,3.30
2018-12-29T05:59:04.153Z,3.30
2018-12-29T05:59:39.658Z,3.30
2018-12-29T06:00:15.039Z,3.30
2018-12-29T06:00:50.453Z,3.20
2018-12-29T06:01:25.864Z,3.20
2018-12-29T06:02:01.216Z,3.30
2018-12-29T06:02:36.624Z,3.30
2018-12-29T06:03:11.938Z,3.30
2018-12-29T06:03:47.329Z,3.20
2018-12-29T06:04:22.736Z,3.20
2018-12-29T06:04:58.778Z,3.20
2018-12-29T06:05:34.094Z,3.20
2018-12-29T06:06:09.355Z,3.20
2018-12-29T06:06:44.679Z,3.20
2018-12-29T06:07:19.999Z,3.20
2018-12-29T06:07:55.380Z,3.20
2018-12-29T06:08:30.734Z,3.20
2018-12-29T06:09:07.493Z,3.20
2018-12-29T06:09:42.941Z,3.20
2018-12-29T06:10:18.456Z,3.20
2018-12-29T06:10:53.762Z,3.20
2018-12-29T06:11:29.416Z,3.20
2018-12-29T06:12:05.355Z,3.30
2018-12-29T06:12:40.764Z,3.30
2018-12-29T06:13:16.152Z,3.30
2018-12-29T06:13:51.787Z,3.20
2018-12-29T06:14:27.085Z,3.20
2018-12-29T06:15:02.472Z,3.20
2018-12-29T06:15:37.983Z,3.20
2018-12-29T06:16:13.373Z,3.20
2018-12-29T06:16:48.783Z,3.20
2018-12-29T06:17:24.243Z,3.20
2018-12-29T06:17:59.714Z,3.20
2018-12-29T06:18:35.365Z,3.20
2018-12-29T06:19:10.995Z,3.20
2018-12-29T06:19:46.370Z,3.20
2018-12-29T06:20:21.820Z,3.20
2018-12-29T06:20:57.270Z,3.20
2018-12-29T06:21:32.524Z,3.20
2018-12-29T06:22:07.847Z,3.20
2018-12-29T06:22:43.190Z,3.10
2018-12-29T06:23:18.626Z,3.10
2018-12-29T06:23:53.938Z,3.10
2018-12-29T06:24:29.160Z,3.10
2018-12-29T06:25:04.626Z,3.10
2018-12-29T06:25:40.457Z,3.10
2018-12-29T06:26:16.073Z,3.10
2018-12-29T06:26:51.394Z,3.10
2018-12-29T06:27:26.940Z,3.10
2018-12-29T06:28:02.366Z,3.10
2018-12-29T06:28:37.806Z,3.10
2018-12-29T06:29:13.223Z,3.10
2018-12-29T06:29:48.617Z,3.10
2018-12-29T06:30:23.894Z,3.10
2018-12-29T06:30:59.396Z,3.10
2018-12-29T06:31:34.938Z,3.20
2018-12-29T06:32:10.895Z,3.10
2018-12-29T06:32:46.446Z,3.10
2018-12-29T06:33:22.059Z,3.10
2018-12-29T06:33:57.470Z,3.20
2018-12-29T06:34:32.907Z,3.10
2018-12-29T06:35:08.300Z,3.10
2018-12-29T06:35:43.721Z,3.20
2018-12-29T06:36:19.180Z,3.20
2018-12-29T06:36:54.653Z,3.20
2018-12-29T06:37:30.179Z,3.20
2018-12-29T06:38:05.658Z,3.20
2018-12-29T06:38:41.448Z,3.20
2018-12-29T06:39:16.859Z,3.20
2018-12-29T06:39:52.160Z,3.20
2018-12-29T06:40:27.500Z,3.20
2018-12-29T06:41:02.713Z,3.20
2018-12-29T06:41:38.113Z,3.20
2018-12-29T06:42:13.691Z,3.20
2018-12-29T06:42:49.196Z,3.10
2018-12-29T06:43:24.701Z,3.20
2018-12-29T06:44:00.350Z,3.10
2018-12-29T06:44:35.785Z,3.10
2018-12-29T06:45:11.621Z,3.10
2018-12-29T06:45:47.068Z,3.10
2018-12-29T06:46:22.641Z,3.10
2018-12-29T06:46:58.070Z,3.10
2018-12-29T06:47:33.615Z,3.00
2018-12-29T06:48:09.051Z,3.00
2018-12-29T06:48:44.583Z,3.10
2018-12-29T06:49:19.870Z,3.10
2018-12-29T06:49:55.307Z,3.00
2018-12-29T06:50:30.825Z,3.00
2018-12-29T06:51:06.406Z,3.10
2018-12-29T06:51:41.836Z,3.00
2018-12-29T06:52:17.159Z,3.00
2018-12-29T06:52:52.662Z,3.00
2018-12-29T06:53:28.033Z,3.00
2018-12-29T06:54:03.561Z,3.00
2018-12-29T06:54:38.991Z,3.10
2018-12-29T06:55:14.413Z,3.10
2018-12-29T06:55:49.687Z,3.10
2018-12-29T06:56:25.192Z,3.10
2018-12-29T06:57:00.736Z,3.10
2018-12-29T06:57:36.362Z,3.10
2018-12-29T06:58:11.835Z,3.10
2018-12-29T06:58:47.632Z,3.10
2018-12-29T06:59:22.963Z,3.10
2018-12-29T06:59:58.396Z,3.10
2018-12-29T07:00:33.715Z,3.10
2018-12-29T07:01:09.194Z,3.10
2018-12-29T07:01:44.731Z,3.10
2018-12-29T07:02:20.173Z,3.10
2018-12-29T07:02:55.611Z,3.10
2018-12-29T07:03:31.256Z,3.10
2018-12-29T07:04:06.756Z,3.10
2018-12-29T07:04:42.159Z,3.10
2018-12-29T07:05:18.074Z,3.10
2018-12-29T07:05:53.564Z,3.10
2018-12-29T07:06:28.927Z,3.10
2018-12-29T07:07:04.388Z,3.10
2018-12-29T07:07:40.054Z,3.10
2018-12-29T07:08:15.559Z,3.10
2018-12-29T07:08:51.135Z,3.10
2018-12-29T07:09:26.389Z,3.10
2018-12-29T07:10:01.764Z,3.10
2018-12-29T07:10:37.095Z,3.10
2018-12-29T07:11:12.635Z,3.10
2018-12-29T07:11:48.084Z,3.10
2018-12-29T07:12:23.389Z,3.20
2018-12-29T07:12:58.777Z,3.10
2018-12-29T07:13:34.163Z,3.10
2018-12-29T07:14:09.677Z,3.20
2018-12-29T07:14:45.078Z,3.20
2018-12-29T07:15:20.632Z,3.20
2018-12-29T07:15:56.162Z,3.20
2018-12-29T07:16:31.535Z,3.20
2018-12-29T07:17:06.825Z,3.20
2018-12-29T07:17:42.306Z,3.20
2018-12-29T07:18:17.917Z,3.20
2018-12-29T07:18:53.666Z,3.20
2018-12-29T07:19:29.203Z,3.20
2018-12-29T07:20:04.679Z,3.20
2018-12-29T07:20:40.151Z,3.20
2018-12-29T07:21:15.824Z,3.20
2018-12-29T07:21:51.371Z,3.20
2018-12-29T07:22:26.905Z,3.30
2018-12-29T07:23:02.416Z,3.20
2018-12-29T07:23:37.961Z,3.30
2018-12-29T07:24:13.996Z,3.20
2018-12-29T07:24:49.451Z,3.20
2018-12-29T07:25:24.759Z,3.30
2018-12-29T07:26:00.295Z,3.30
2018-12-29T07:26:35.825Z,3.30
2018-12-29T07:27:11.105Z,3.30
2018-12-29T07:27:46.581Z,3.30
2018-12-29T07:28:22.168Z,3.30
2018-12-29T07:28:57.551Z,3.30
2018-12-29T07:29:38.199Z,3.30
2018-12-29T07:30:10.428Z,3.30
2018-12-29T07:30:45.809Z,3.30
2018-12-29T07:31:21.213Z,3.30
2018-12-29T07:31:56.721Z,3.30
2018-12-29T07:32:32.045Z,3.30
2018-12-29T07:33:07.724Z,3.30
2018-12-29T07:33:43.847Z,3.30
2018-12-29T07:34:19.495Z,3.30
2018-12-29T07:34:54.968Z,3.30
2018-12-29T07:35:30.409Z,3.30
2018-12-29T07:36:05.774Z,3.30
2018-12-29T07:36:41.416Z,3.40
2018-12-29T07:37:16.735Z,3.40
2018-12-29T07:37:52.216Z,3.40
2018-12-29T07:38:27.493Z,3.40
2018-12-29T07:39:02.974Z,3.40
2018-12-29T07:39:38.416Z,3.40
2018-12-29T07:40:14.333Z,3.40
2018-12-29T07:40:49.960Z,3.40
2018-12-29T07:41:25.253Z,3.40
2018-12-29T07:42:00.595Z,3.40
2018-12-29T07:42:36.065Z,3.40
2018-12-29T07:43:11.530Z,3.40
2018-12-29T07:43:46.843Z,3.40
2018-12-29T07:44:22.218Z,3.40
2018-12-29T07:44:57.689Z,3.50
2018-12-29T07:45:33.133Z,3.50
2018-12-29T07:46:08.799Z,3.50
2018-12-29T07:46:49.640Z,3.50
2018-12-29T07:47:21.317Z,3.50
2018-12-29T07:47:57.205Z,3.50
2018-12-29T07:48:32.553Z,3.60
2018-12-29T07:49:08.016Z,3.60
2018-12-29T07:49:43.331Z,3.60
2018-12-29T07:50:18.618Z,3.60
2018-12-29T07:50:54.263Z,3.60
2018-12-29T07:51:29.941Z,3.60
2018-12-29T07:52:05.385Z,3.60
2018-12-29T07:52:40.773Z,3.60
2018-12-29T07:53:16.313Z,3.60
2018-12-29T07:53:51.798Z,3.60